sensor_id;sensor_type;location;lat;lon;timestamp;temperature;humidity
76838;DHT22;65797;47.352;8.164;2023-05-29T00:00:20;15.00;18.50
76838;DHT22;65797;47.352;8.164;2023-05-29T00:02:47;15.00;17.90
76838;DHT22;65797;47.352;8.164;2023-05-29T00:05:13;15.00;20.80
76838;DHT22;65797;47.352;8.164;2023-05-29T00:07:40;14.90;23.20
76838;DHT22;65797;47.352;8.164;2023-05-29T00:10:07;14.90;22.80
76838;DHT22;65797;47.352;8.164;2023-05-29T00:12:34;14.90;22.70
76838;DHT22;65797;47.352;8.164;2023-05-29T00:15:00;14.80;25.40
76838;DHT22;65797;47.352;8.164;2023-05-29T00:17:25;14.70;28.10
76838;DHT22;65797;47.352;8.164;2023-05-29T00:19:51;14.70;25.60
76838;DHT22;65797;47.352;8.164;2023-05-29T00:22:17;14.60;21.30
76838;DHT22;65797;47.352;8.164;2023-05-29T00:24:43;14.70;24.60
76838;DHT22;65797;47.352;8.164;2023-05-29T00:27:10;14.60;29.10
76838;DHT22;65797;47.352;8.164;2023-05-29T00:29:36;14.50;25.80
76838;DHT22;65797;47.352;8.164;2023-05-29T00:32:04;14.40;29.70
76838;DHT22;65797;47.352;8.164;2023-05-29T00:34:31;14.20;28.70
76838;DHT22;65797;47.352;8.164;2023-05-29T00:36:56;14.00;26.80
76838;DHT22;65797;47.352;8.164;2023-05-29T00:39:22;14.10;24.60
76838;DHT22;65797;47.352;8.164;2023-05-29T00:41:48;14.10;23.60
76838;DHT22;65797;47.352;8.164;2023-05-29T00:44:17;14.20;28.50
76838;DHT22;65797;47.352;8.164;2023-05-29T00:46:44;14.20;27.70
76838;DHT22;65797;47.352;8.164;2023-05-29T00:49:10;14.10;28.20
76838;DHT22;65797;47.352;8.164;2023-05-29T00:51:37;14.00;40.10
76838;DHT22;65797;47.352;8.164;2023-05-29T00:54:05;14.00;41.70
76838;DHT22;65797;47.352;8.164;2023-05-29T00:56:33;14.00;43.30
76838;DHT22;65797;47.352;8.164;2023-05-29T00:59:00;13.90;44.70
76838;DHT22;65797;47.352;8.164;2023-05-29T01:01:25;13.90;48.40
76838;DHT22;65797;47.352;8.164;2023-05-29T01:03:55;13.80;40.00
76838;DHT22;65797;47.352;8.164;2023-05-29T01:06:21;13.70;37.70
76838;DHT22;65797;47.352;8.164;2023-05-29T01:08:47;13.70;38.40
76838;DHT22;65797;47.352;8.164;2023-05-29T01:11:39;13.70;58.00
76838;DHT22;65797;47.352;8.164;2023-05-29T01:14:09;13.60;74.90
76838;DHT22;65797;47.352;8.164;2023-05-29T01:16:50;13.60;74.20
76838;DHT22;65797;47.352;8.164;2023-05-29T01:25:23;13.50;58.90
76838;DHT22;65797;47.352;8.164;2023-05-29T01:27:50;13.40;91.40
76838;DHT22;65797;47.352;8.164;2023-05-29T01:30:18;13.30;95.90
76838;DHT22;65797;47.352;8.164;2023-05-29T01:32:46;13.30;95.90
76838;DHT22;65797;47.352;8.164;2023-05-29T01:35:12;13.30;99.90
76838;DHT22;65797;47.352;8.164;2023-05-29T01:37:38;13.30;99.90
76838;DHT22;65797;47.352;8.164;2023-05-29T01:40:04;13.10;98.90
76838;DHT22;65797;47.352;8.164;2023-05-29T01:42:30;13.00;96.60
76838;DHT22;65797;47.352;8.164;2023-05-29T01:44:57;13.00;94.70
76838;DHT22;65797;47.352;8.164;2023-05-29T01:47:23;13.00;95.80
76838;DHT22;65797;47.352;8.164;2023-05-29T01:49:51;13.00;88.60
76838;DHT22;65797;47.352;8.164;2023-05-29T01:52:17;13.00;78.10
76838;DHT22;65797;47.352;8.164;2023-05-29T01:54:44;13.00;90.20
76838;DHT22;65797;47.352;8.164;2023-05-29T01:57:10;12.80;99.90
76838;DHT22;65797;47.352;8.164;2023-05-29T01:59:37;12.80;99.90
76838;DHT22;65797;47.352;8.164;2023-05-29T02:02:07;12.80;99.90
76838;DHT22;65797;47.352;8.164;2023-05-29T02:04:33;12.70;99.90
76838;DHT22;65797;47.352;8.164;2023-05-29T02:06:59;12.70;99.90
76838;DHT22;65797;47.352;8.164;2023-05-29T02:09:25;12.70;99.90
76838;DHT22;65797;47.352;8.164;2023-05-29T02:11:51;12.70;99.90
76838;DHT22;65797;47.352;8.164;2023-05-29T02:14:17;12.60;99.90
76838;DHT22;65797;47.352;8.164;2023-05-29T02:16:42;12.60;99.90
76838;DHT22;65797;47.352;8.164;2023-05-29T02:19:10;12.50;99.90
76838;DHT22;65797;47.352;8.164;2023-05-29T02:21:39;12.50;99.90
76838;DHT22;65797;47.352;8.164;2023-05-29T02:24:06;12.40;99.90
76838;DHT22;65797;47.352;8.164;2023-05-29T02:26:33;12.40;99.90
76838;DHT22;65797;47.352;8.164;2023-05-29T02:28:59;12.30;99.90
76838;DHT22;65797;47.352;8.164;2023-05-29T02:31:25;12.30;99.90
76838;DHT22;65797;47.352;8.164;2023-05-29T02:33:50;12.30;99.90
76838;DHT22;65797;47.352;8.164;2023-05-29T02:36:16;12.30;99.90
76838;DHT22;65797;47.352;8.164;2023-05-29T02:38:42;12.30;99.90
76838;DHT22;65797;47.352;8.164;2023-05-29T02:41:08;12.20;99.90
76838;DHT22;65797;47.352;8.164;2023-05-29T02:43:34;12.20;99.90
76838;DHT22;65797;47.352;8.164;2023-05-29T02:45:59;12.10;99.90
76838;DHT22;65797;47.352;8.164;2023-05-29T02:48:25;12.10;99.90
76838;DHT22;65797;47.352;8.164;2023-05-29T02:50:51;12.00;99.90
76838;DHT22;65797;47.352;8.164;2023-05-29T02:53:17;12.00;99.90
76838;DHT22;65797;47.352;8.164;2023-05-29T02:55:43;12.00;99.90
76838;DHT22;65797;47.352;8.164;2023-05-29T02:58:09;12.00;99.90
76838;DHT22;65797;47.352;8.164;2023-05-29T03:00:37;11.90;99.90
76838;DHT22;65797;47.352;8.164;2023-05-29T03:03:03;11.80;99.90
76838;DHT22;65797;47.352;8.164;2023-05-29T03:05:30;11.80;99.90
76838;DHT22;65797;47.352;8.164;2023-05-29T03:07:55;11.70;99.90
76838;DHT22;65797;47.352;8.164;2023-05-29T03:10:21;11.70;99.90
76838;DHT22;65797;47.352;8.164;2023-05-29T03:12:47;11.60;99.90
76838;DHT22;65797;47.352;8.164;2023-05-29T03:15:13;11.50;99.90
76838;DHT22;65797;47.352;8.164;2023-05-29T03:17:39;11.50;99.90
76838;DHT22;65797;47.352;8.164;2023-05-29T03:20:05;11.50;99.90
76838;DHT22;65797;47.352;8.164;2023-05-29T03:22:32;11.50;99.90
76838;DHT22;65797;47.352;8.164;2023-05-29T03:24:58;11.50;99.90
76838;DHT22;65797;47.352;8.164;2023-05-29T03:27:24;11.50;99.90
76838;DHT22;65797;47.352;8.164;2023-05-29T03:29:49;11.50;99.90
76838;DHT22;65797;47.352;8.164;2023-05-29T03:32:15;11.50;99.90
76838;DHT22;65797;47.352;8.164;2023-05-29T03:34:41;11.50;99.90
76838;DHT22;65797;47.352;8.164;2023-05-29T03:37:07;11.50;99.90
76838;DHT22;65797;47.352;8.164;2023-05-29T03:39:33;11.40;99.90
76838;DHT22;65797;47.352;8.164;2023-05-29T03:41:59;11.40;99.90
76838;DHT22;65797;47.352;8.164;2023-05-29T03:44:25;11.40;99.90
76838;DHT22;65797;47.352;8.164;2023-05-29T03:46:51;11.30;99.90
76838;DHT22;65797;47.352;8.164;2023-05-29T03:49:17;11.30;99.90
76838;DHT22;65797;47.352;8.164;2023-05-29T03:51:42;11.30;99.90
76838;DHT22;65797;47.352;8.164;2023-05-29T03:54:08;11.30;99.90
76838;DHT22;65797;47.352;8.164;2023-05-29T03:56:34;11.30;99.90
76838;DHT22;65797;47.352;8.164;2023-05-29T03:59:02;11.30;99.90
76838;DHT22;65797;47.352;8.164;2023-05-29T04:01:28;11.20;99.90
76838;DHT22;65797;47.352;8.164;2023-05-29T04:03:54;11.20;99.90
76838;DHT22;65797;47.352;8.164;2023-05-29T04:06:19;11.20;99.90
76838;DHT22;65797;47.352;8.164;2023-05-29T04:08:45;11.10;99.90
76838;DHT22;65797;47.352;8.164;2023-05-29T04:11:11;11.10;99.90
76838;DHT22;65797;47.352;8.164;2023-05-29T04:13:37;11.10;99.90
76838;DHT22;65797;47.352;8.164;2023-05-29T04:16:03;11.10;99.90
76838;DHT22;65797;47.352;8.164;2023-05-29T04:18:29;11.20;99.90
76838;DHT22;65797;47.352;8.164;2023-05-29T04:20:54;11.20;99.90
76838;DHT22;65797;47.352;8.164;2023-05-29T04:23:20;11.20;99.90
76838;DHT22;65797;47.352;8.164;2023-05-29T04:25:47;11.30;99.90
76838;DHT22;65797;47.352;8.164;2023-05-29T04:28:12;11.20;99.90
76838;DHT22;65797;47.352;8.164;2023-05-29T04:30:38;11.20;99.90
76838;DHT22;65797;47.352;8.164;2023-05-29T04:33:04;11.40;99.90
76838;DHT22;65797;47.352;8.164;2023-05-29T04:35:30;11.60;99.90
76838;DHT22;65797;47.352;8.164;2023-05-29T04:37:56;11.70;99.90
76838;DHT22;65797;47.352;8.164;2023-05-29T04:40:22;11.80;99.90
76838;DHT22;65797;47.352;8.164;2023-05-29T04:42:48;11.90;99.90
76838;DHT22;65797;47.352;8.164;2023-05-29T04:45:13;11.90;99.90
76838;DHT22;65797;47.352;8.164;2023-05-29T04:47:39;12.00;99.90
76838;DHT22;65797;47.352;8.164;2023-05-29T04:50:17;12.00;99.90
76838;DHT22;65797;47.352;8.164;2023-05-29T04:52:43;12.20;99.90
76838;DHT22;65797;47.352;8.164;2023-05-29T04:55:09;12.40;99.90
76838;DHT22;65797;47.352;8.164;2023-05-29T04:57:35;12.50;99.90
76838;DHT22;65797;47.352;8.164;2023-05-29T05:00:02;12.50;99.90
76838;DHT22;65797;47.352;8.164;2023-05-29T05:02:32;12.50;99.90
76838;DHT22;65797;47.352;8.164;2023-05-29T05:04:58;12.70;99.90
76838;DHT22;65797;47.352;8.164;2023-05-29T05:07:24;13.00;99.90
76838;DHT22;65797;47.352;8.164;2023-05-29T05:09:50;13.20;99.90
76838;DHT22;65797;47.352;8.164;2023-05-29T05:12:15;13.40;99.90
76838;DHT22;65797;47.352;8.164;2023-05-29T05:14:41;13.50;99.90
76838;DHT22;65797;47.352;8.164;2023-05-29T05:17:07;13.60;99.90
76838;DHT22;65797;47.352;8.164;2023-05-29T05:19:32;13.70;99.90
76838;DHT22;65797;47.352;8.164;2023-05-29T05:21:58;13.90;99.90
76838;DHT22;65797;47.352;8.164;2023-05-29T05:24:24;14.10;99.90
76838;DHT22;65797;47.352;8.164;2023-05-29T05:26:50;14.40;99.90
76838;DHT22;65797;47.352;8.164;2023-05-29T05:29:15;14.60;99.90
76838;DHT22;65797;47.352;8.164;2023-05-29T05:31:41;14.80;99.90
76838;DHT22;65797;47.352;8.164;2023-05-29T05:34:07;15.00;99.90
76838;DHT22;65797;47.352;8.164;2023-05-29T05:36:32;15.30;99.90
76838;DHT22;65797;47.352;8.164;2023-05-29T05:38:58;15.60;99.90
76838;DHT22;65797;47.352;8.164;2023-05-29T05:41:24;15.80;99.90
76838;DHT22;65797;47.352;8.164;2023-05-29T05:43:50;16.00;99.90
76838;DHT22;65797;47.352;8.164;2023-05-29T05:46:16;16.30;99.90
76838;DHT22;65797;47.352;8.164;2023-05-29T05:48:43;16.50;99.90
76838;DHT22;65797;47.352;8.164;2023-05-29T05:51:09;16.70;88.50
76838;DHT22;65797;47.352;8.164;2023-05-29T05:53:35;16.80;78.60
76838;DHT22;65797;47.352;8.164;2023-05-29T05:56:01;17.10;77.60
76838;DHT22;65797;47.352;8.164;2023-05-29T05:58:27;17.40;78.30
76838;DHT22;65797;47.352;8.164;2023-05-29T06:00:53;17.30;66.70
76838;DHT22;65797;47.352;8.164;2023-05-29T06:03:18;17.60;69.00
76838;DHT22;65797;47.352;8.164;2023-05-29T06:05:44;18.00;69.30
76838;DHT22;65797;47.352;8.164;2023-05-29T06:08:10;18.20;71.20
76838;DHT22;65797;47.352;8.164;2023-05-29T06:10:36;18.50;72.80
76838;DHT22;65797;47.352;8.164;2023-05-29T06:13:02;18.40;72.30
76838;DHT22;65797;47.352;8.164;2023-05-29T06:15:27;18.70;72.80
76838;DHT22;65797;47.352;8.164;2023-05-29T06:17:53;18.80;75.20
76838;DHT22;65797;47.352;8.164;2023-05-29T06:20:21;18.80;74.40
76838;DHT22;65797;47.352;8.164;2023-05-29T06:22:47;19.20;80.90
76838;DHT22;65797;47.352;8.164;2023-05-29T06:25:17;18.40;67.80
76838;DHT22;65797;47.352;8.164;2023-05-29T06:27:45;18.60;67.70
76838;DHT22;65797;47.352;8.164;2023-05-29T06:30:12;18.80;65.20
76838;DHT22;65797;47.352;8.164;2023-05-29T06:32:38;18.90;63.70
76838;DHT22;65797;47.352;8.164;2023-05-29T06:35:04;19.00;60.20
76838;DHT22;65797;47.352;8.164;2023-05-29T06:37:31;19.30;65.80
76838;DHT22;65797;47.352;8.164;2023-05-29T06:39:57;19.00;59.00
76838;DHT22;65797;47.352;8.164;2023-05-29T06:42:23;19.30;63.80
76838;DHT22;65797;47.352;8.164;2023-05-29T06:44:48;18.70;58.70
76838;DHT22;65797;47.352;8.164;2023-05-29T06:47:14;18.50;56.40
76838;DHT22;65797;47.352;8.164;2023-05-29T06:49:40;19.00;57.60
76838;DHT22;65797;47.352;8.164;2023-05-29T06:52:06;19.40;58.80
76838;DHT22;65797;47.352;8.164;2023-05-29T06:54:31;19.60;62.20
76838;DHT22;65797;47.352;8.164;2023-05-29T06:56:57;19.50;58.30
76838;DHT22;65797;47.352;8.164;2023-05-29T06:59:23;19.80;60.70
76838;DHT22;65797;47.352;8.164;2023-05-29T07:01:48;19.80;67.20
76838;DHT22;65797;47.352;8.164;2023-05-29T07:04:14;20.20;67.50
76838;DHT22;65797;47.352;8.164;2023-05-29T07:06:40;19.90;63.30
76838;DHT22;65797;47.352;8.164;2023-05-29T07:09:06;20.00;61.20
76838;DHT22;65797;47.352;8.164;2023-05-29T07:11:32;20.20;60.00
76838;DHT22;65797;47.352;8.164;2023-05-29T07:13:58;20.20;57.60
76838;DHT22;65797;47.352;8.164;2023-05-29T07:16:25;20.10;56.70
76838;DHT22;65797;47.352;8.164;2023-05-29T07:18:51;20.30;60.70
76838;DHT22;65797;47.352;8.164;2023-05-29T07:21:17;20.50;61.80
76838;DHT22;65797;47.352;8.164;2023-05-29T07:23:44;20.80;65.50
76838;DHT22;65797;47.352;8.164;2023-05-29T07:26:10;21.20;72.90
76838;DHT22;65797;47.352;8.164;2023-05-29T07:28:36;21.40;70.20
76838;DHT22;65797;47.352;8.164;2023-05-29T07:31:01;21.30;68.10
76838;DHT22;65797;47.352;8.164;2023-05-29T07:33:27;21.30;69.30
76838;DHT22;65797;47.352;8.164;2023-05-29T07:35:53;21.50;72.40
76838;DHT22;65797;47.352;8.164;2023-05-29T07:38:18;21.60;72.30
76838;DHT22;65797;47.352;8.164;2023-05-29T07:40:44;21.60;71.10
76838;DHT22;65797;47.352;8.164;2023-05-29T07:43:10;21.70;73.70
76838;DHT22;65797;47.352;8.164;2023-05-29T07:45:36;21.80;73.30
76838;DHT22;65797;47.352;8.164;2023-05-29T07:48:01;21.80;73.40
76838;DHT22;65797;47.352;8.164;2023-05-29T07:50:27;22.10;75.40
76838;DHT22;65797;47.352;8.164;2023-05-29T07:52:53;22.30;79.10
76838;DHT22;65797;47.352;8.164;2023-05-29T07:55:21;22.30;74.50
76838;DHT22;65797;47.352;8.164;2023-05-29T07:57:47;22.40;75.20
76838;DHT22;65797;47.352;8.164;2023-05-29T08:00:14;22.40;77.70
76838;DHT22;65797;47.352;8.164;2023-05-29T08:02:41;22.70;78.60
76838;DHT22;65797;47.352;8.164;2023-05-29T08:05:08;22.80;75.90
76838;DHT22;65797;47.352;8.164;2023-05-29T08:07:35;22.80;75.70
76838;DHT22;65797;47.352;8.164;2023-05-29T08:10:00;22.50;75.40
76838;DHT22;65797;47.352;8.164;2023-05-29T08:12:26;22.50;72.00
76838;DHT22;65797;47.352;8.164;2023-05-29T08:14:52;22.60;72.30
76838;DHT22;65797;47.352;8.164;2023-05-29T08:17:17;22.60;72.70
76838;DHT22;65797;47.352;8.164;2023-05-29T08:19:43;22.80;79.50
76838;DHT22;65797;47.352;8.164;2023-05-29T08:22:12;22.60;73.50
76838;DHT22;65797;47.352;8.164;2023-05-29T08:24:38;22.80;73.50
76838;DHT22;65797;47.352;8.164;2023-05-29T08:27:04;23.00;73.80
76838;DHT22;65797;47.352;8.164;2023-05-29T08:29:29;23.10;76.40
76838;DHT22;65797;47.352;8.164;2023-05-29T08:31:56;22.60;73.30
76838;DHT22;65797;47.352;8.164;2023-05-29T08:34:21;23.00;74.50
76838;DHT22;65797;47.352;8.164;2023-05-29T08:36:47;22.90;70.80
76838;DHT22;65797;47.352;8.164;2023-05-29T08:39:14;22.70;70.40
76838;DHT22;65797;47.352;8.164;2023-05-29T08:44:23;22.90;68.80
76838;DHT22;65797;47.352;8.164;2023-05-29T08:46:55;22.90;69.80
76838;DHT22;65797;47.352;8.164;2023-05-29T08:49:23;22.60;66.30
76838;DHT22;65797;47.352;8.164;2023-05-29T08:52:00;22.80;68.00
76838;DHT22;65797;47.352;8.164;2023-05-29T08:54:28;22.60;66.30
76838;DHT22;65797;47.352;8.164;2023-05-29T08:56:56;22.60;64.50
76838;DHT22;65797;47.352;8.164;2023-05-29T08:59:23;22.80;67.30
76838;DHT22;65797;47.352;8.164;2023-05-29T09:01:49;22.90;66.10
76838;DHT22;65797;47.352;8.164;2023-05-29T09:04:15;23.00;69.40
76838;DHT22;65797;47.352;8.164;2023-05-29T09:06:41;23.30;72.90
76838;DHT22;65797;47.352;8.164;2023-05-29T09:09:06;23.60;79.10
76838;DHT22;65797;47.352;8.164;2023-05-29T09:11:32;23.80;77.40
76838;DHT22;65797;47.352;8.164;2023-05-29T09:13:59;23.90;78.20
76838;DHT22;65797;47.352;8.164;2023-05-29T09:16:25;24.20;85.10
76838;DHT22;65797;47.352;8.164;2023-05-29T09:18:50;24.10;81.10
76838;DHT22;65797;47.352;8.164;2023-05-29T09:21:34;23.90;76.60
76838;DHT22;65797;47.352;8.164;2023-05-29T09:24:04;23.60;72.90
76838;DHT22;65797;47.352;8.164;2023-05-29T09:26:31;23.90;75.90
76838;DHT22;65797;47.352;8.164;2023-05-29T09:28:57;23.80;75.70
76838;DHT22;65797;47.352;8.164;2023-05-29T09:31:23;23.80;73.90
76838;DHT22;65797;47.352;8.164;2023-05-29T09:33:50;23.90;76.70
76838;DHT22;65797;47.352;8.164;2023-05-29T09:36:22;24.10;79.40
76838;DHT22;65797;47.352;8.164;2023-05-29T09:38:48;24.40;81.80
76838;DHT22;65797;47.352;8.164;2023-05-29T09:41:21;24.60;82.40
76838;DHT22;65797;47.352;8.164;2023-05-29T09:43:49;24.50;83.10
76838;DHT22;65797;47.352;8.164;2023-05-29T09:48:50;24.60;84.80
76838;DHT22;65797;47.352;8.164;2023-05-29T09:51:22;24.90;87.30
76838;DHT22;65797;47.352;8.164;2023-05-29T09:53:48;24.70;85.10
76838;DHT22;65797;47.352;8.164;2023-05-29T09:56:16;24.90;87.60
76838;DHT22;65797;47.352;8.164;2023-05-29T09:58:46;24.90;87.80
76838;DHT22;65797;47.352;8.164;2023-05-29T10:01:16;25.00;89.50
76838;DHT22;65797;47.352;8.164;2023-05-29T10:03:45;24.40;81.10
76838;DHT22;65797;47.352;8.164;2023-05-29T10:06:15;24.40;80.20
76838;DHT22;65797;47.352;8.164;2023-05-29T10:08:49;24.90;87.00
76838;DHT22;65797;47.352;8.164;2023-05-29T10:11:21;25.00;88.20
76838;DHT22;65797;47.352;8.164;2023-05-29T10:13:51;25.00;86.00
76838;DHT22;65797;47.352;8.164;2023-05-29T10:16:22;25.10;88.30
76838;DHT22;65797;47.352;8.164;2023-05-29T10:18:55;25.10;89.30
76838;DHT22;65797;47.352;8.164;2023-05-29T10:21:22;25.30;90.10
76838;DHT22;65797;47.352;8.164;2023-05-29T10:23:49;25.50;90.80
76838;DHT22;65797;47.352;8.164;2023-05-29T10:26:25;25.30;89.10
76838;DHT22;65797;47.352;8.164;2023-05-29T10:34:35;25.60;91.20
76838;DHT22;65797;47.352;8.164;2023-05-29T10:39:39;25.80;92.20
76838;DHT22;65797;47.352;8.164;2023-05-29T10:42:41;26.20;93.90
76838;DHT22;65797;47.352;8.164;2023-05-29T11:05:58;26.40;94.30
76838;DHT22;65797;47.352;8.164;2023-05-29T11:08:35;26.80;96.10
76838;DHT22;65797;47.352;8.164;2023-05-29T11:11:02;26.70;94.60
76838;DHT22;65797;47.352;8.164;2023-05-29T14:51:43;27.10;64.60
76838;DHT22;65797;47.352;8.164;2023-05-29T14:54:10;27.30;69.30
76838;DHT22;65797;47.352;8.164;2023-05-29T14:56:37;27.10;64.80
76838;DHT22;65797;47.352;8.164;2023-05-29T14:59:02;27.20;67.80
76838;DHT22;65797;47.352;8.164;2023-05-29T15:01:28;27.60;73.30
76838;DHT22;65797;47.352;8.164;2023-05-29T15:03:54;27.90;76.80
76838;DHT22;65797;47.352;8.164;2023-05-29T15:06:20;27.80;78.40
76838;DHT22;65797;47.352;8.164;2023-05-29T15:08:45;27.70;71.60
76838;DHT22;65797;47.352;8.164;2023-05-29T15:11:11;27.40;69.40
76838;DHT22;65797;47.352;8.164;2023-05-29T15:13:41;27.30;68.20
76838;DHT22;65797;47.352;8.164;2023-05-29T15:16:07;27.30;70.20
76838;DHT22;65797;47.352;8.164;2023-05-29T15:18:33;26.90;63.10
76838;DHT22;65797;47.352;8.164;2023-05-29T15:20:59;27.40;69.60
76838;DHT22;65797;47.352;8.164;2023-05-29T15:23:26;27.20;68.50
76838;DHT22;65797;47.352;8.164;2023-05-29T15:25:52;27.50;71.90
76838;DHT22;65797;47.352;8.164;2023-05-29T15:28:18;27.60;72.20
76838;DHT22;65797;47.352;8.164;2023-05-29T15:30:44;27.70;72.70
76838;DHT22;65797;47.352;8.164;2023-05-29T15:33:10;26.90;65.10
76838;DHT22;65797;47.352;8.164;2023-05-29T15:35:37;27.00;61.40
76838;DHT22;65797;47.352;8.164;2023-05-29T15:38:08;26.80;60.20
76838;DHT22;65797;47.352;8.164;2023-05-29T15:40:34;27.00;61.10
76838;DHT22;65797;47.352;8.164;2023-05-29T15:42:59;27.20;66.50
76838;DHT22;65797;47.352;8.164;2023-05-29T15:45:25;27.20;63.70
76838;DHT22;65797;47.352;8.164;2023-05-29T15:47:52;26.80;58.70
76838;DHT22;65797;47.352;8.164;2023-05-29T15:50:18;26.80;58.90
76838;DHT22;65797;47.352;8.164;2023-05-29T15:52:44;26.50;56.50
76838;DHT22;65797;47.352;8.164;2023-05-29T15:55:10;26.50;56.00
76838;DHT22;65797;47.352;8.164;2023-05-29T15:57:35;26.60;56.80
76838;DHT22;65797;47.352;8.164;2023-05-29T16:00:02;26.80;58.70
76838;DHT22;65797;47.352;8.164;2023-05-29T16:02:28;26.40;54.50
76838;DHT22;65797;47.352;8.164;2023-05-29T16:04:54;26.20;51.50
76838;DHT22;65797;47.352;8.164;2023-05-29T16:07:20;26.20;52.20
76838;DHT22;65797;47.352;8.164;2023-05-29T16:09:46;26.30;52.20
76838;DHT22;65797;47.352;8.164;2023-05-29T16:12:12;26.30;52.40
76838;DHT22;65797;47.352;8.164;2023-05-29T16:14:40;26.40;53.20
76838;DHT22;65797;47.352;8.164;2023-05-29T16:17:05;26.30;52.90
76838;DHT22;65797;47.352;8.164;2023-05-29T16:19:31;26.00;49.00
76838;DHT22;65797;47.352;8.164;2023-05-29T16:21:57;25.90;47.70
76838;DHT22;65797;47.352;8.164;2023-05-29T16:24:23;25.90;47.90
76838;DHT22;65797;47.352;8.164;2023-05-29T16:26:50;25.80;47.70
76838;DHT22;65797;47.352;8.164;2023-05-29T16:29:16;25.90;47.90
76838;DHT22;65797;47.352;8.164;2023-05-29T16:31:42;25.90;46.90
76838;DHT22;65797;47.352;8.164;2023-05-29T16:34:09;25.50;44.00
76838;DHT22;65797;47.352;8.164;2023-05-29T16:36:35;25.40;41.80
76838;DHT22;65797;47.352;8.164;2023-05-29T16:39:00;25.40;42.50
76838;DHT22;65797;47.352;8.164;2023-05-29T16:41:26;25.40;41.00
76838;DHT22;65797;47.352;8.164;2023-05-29T16:43:52;25.30;40.10
76838;DHT22;65797;47.352;8.164;2023-05-29T16:46:18;25.30;40.40
76838;DHT22;65797;47.352;8.164;2023-05-29T16:48:43;25.40;40.90
76838;DHT22;65797;47.352;8.164;2023-05-29T16:51:09;25.50;42.50
76838;DHT22;65797;47.352;8.164;2023-05-29T16:53:36;25.40;41.60
76838;DHT22;65797;47.352;8.164;2023-05-29T16:56:03;25.40;41.80
76838;DHT22;65797;47.352;8.164;2023-05-29T16:58:29;25.30;40.10
76838;DHT22;65797;47.352;8.164;2023-05-29T17:00:55;25.30;40.10
76838;DHT22;65797;47.352;8.164;2023-05-29T17:03:21;25.40;40.70
76838;DHT22;65797;47.352;8.164;2023-05-29T17:05:47;25.30;39.80
76838;DHT22;65797;47.352;8.164;2023-05-29T17:08:12;25.10;36.50
76838;DHT22;65797;47.352;8.164;2023-05-29T17:10:39;25.10;36.80
76838;DHT22;65797;47.352;8.164;2023-05-29T17:13:06;25.00;34.90
76838;DHT22;65797;47.352;8.164;2023-05-29T17:15:33;25.00;35.10
76838;DHT22;65797;47.352;8.164;2023-05-29T17:17:59;24.90;34.90
76838;DHT22;65797;47.352;8.164;2023-05-29T17:20:25;24.80;33.50
76838;DHT22;65797;47.352;8.164;2023-05-29T17:22:51;24.60;31.70
76838;DHT22;65797;47.352;8.164;2023-05-29T17:25:17;24.60;32.30
76838;DHT22;65797;47.352;8.164;2023-05-29T17:27:43;24.60;32.30
76838;DHT22;65797;47.352;8.164;2023-05-29T17:30:09;24.70;33.10
76838;DHT22;65797;47.352;8.164;2023-05-29T17:32:35;24.60;31.20
76838;DHT22;65797;47.352;8.164;2023-05-29T17:35:01;24.20;29.10
76838;DHT22;65797;47.352;8.164;2023-05-29T17:37:26;24.20;28.60
76838;DHT22;65797;47.352;8.164;2023-05-29T17:39:53;24.20;27.90
76838;DHT22;65797;47.352;8.164;2023-05-29T17:42:19;24.20;29.30
76838;DHT22;65797;47.352;8.164;2023-05-29T17:44:45;24.20;28.40
76838;DHT22;65797;47.352;8.164;2023-05-29T17:47:11;24.20;28.50
76838;DHT22;65797;47.352;8.164;2023-05-29T17:49:37;24.00;27.40
76838;DHT22;65797;47.352;8.164;2023-05-29T17:52:03;24.00;26.90
76838;DHT22;65797;47.352;8.164;2023-05-29T17:54:32;23.90;25.60
76838;DHT22;65797;47.352;8.164;2023-05-29T17:56:58;23.90;25.50
76838;DHT22;65797;47.352;8.164;2023-05-29T17:59:23;23.70;24.00
76838;DHT22;65797;47.352;8.164;2023-05-29T18:01:49;23.60;23.40
76838;DHT22;65797;47.352;8.164;2023-05-29T18:04:15;23.60;23.60
76838;DHT22;65797;47.352;8.164;2023-05-29T18:06:40;23.40;21.90
76838;DHT22;65797;47.352;8.164;2023-05-29T18:09:06;23.40;22.60
76838;DHT22;65797;47.352;8.164;2023-05-29T18:11:34;23.30;20.30
76838;DHT22;65797;47.352;8.164;2023-05-29T18:14:00;23.20;19.50
76838;DHT22;65797;47.352;8.164;2023-05-29T18:16:37;23.20;19.50
76838;DHT22;65797;47.352;8.164;2023-05-29T18:19:04;23.10;18.60
76838;DHT22;65797;47.352;8.164;2023-05-29T18:21:32;23.10;17.90
76838;DHT22;65797;47.352;8.164;2023-05-29T18:23:58;23.00;17.10
76838;DHT22;65797;47.352;8.164;2023-05-29T18:26:24;23.00;17.20
76838;DHT22;65797;47.352;8.164;2023-05-29T18:28:51;23.00;16.70
76838;DHT22;65797;47.352;8.164;2023-05-29T18:31:17;22.90;16.20
76838;DHT22;65797;47.352;8.164;2023-05-29T18:33:44;22.80;15.60
76838;DHT22;65797;47.352;8.164;2023-05-29T18:36:10;22.70;14.50
76838;DHT22;65797;47.352;8.164;2023-05-29T18:38:37;22.60;14.00
76838;DHT22;65797;47.352;8.164;2023-05-29T18:41:03;22.60;13.40
76838;DHT22;65797;47.352;8.164;2023-05-29T18:43:29;22.50;13.40
76838;DHT22;65797;47.352;8.164;2023-05-29T18:45:55;22.40;11.80
76838;DHT22;65797;47.352;8.164;2023-05-29T18:48:20;22.40;12.80
76838;DHT22;65797;47.352;8.164;2023-05-29T18:50:46;22.40;11.60
76838;DHT22;65797;47.352;8.164;2023-05-29T18:53:12;22.30;10.40
76838;DHT22;65797;47.352;8.164;2023-05-29T18:55:37;22.20;10.20
76838;DHT22;65797;47.352;8.164;2023-05-29T18:58:03;22.10;9.60
76838;DHT22;65797;47.352;8.164;2023-05-29T19:00:30;22.10;8.90
76838;DHT22;65797;47.352;8.164;2023-05-29T19:02:56;22.10;8.90
76838;DHT22;65797;47.352;8.164;2023-05-29T19:05:22;22.00;8.30
76838;DHT22;65797;47.352;8.164;2023-05-29T19:07:49;22.00;7.40
76838;DHT22;65797;47.352;8.164;2023-05-29T19:10:16;21.90;6.50
76838;DHT22;65797;47.352;8.164;2023-05-29T19:12:42;21.80;6.60
76838;DHT22;65797;47.352;8.164;2023-05-29T19:15:09;21.70;6.10
76838;DHT22;65797;47.352;8.164;2023-05-29T19:17:37;21.60;5.20
76838;DHT22;65797;47.352;8.164;2023-05-29T19:20:03;21.60;4.30
76838;DHT22;65797;47.352;8.164;2023-05-29T19:22:33;21.50;3.60
76838;DHT22;65797;47.352;8.164;2023-05-29T19:25:02;21.50;4.20
76838;DHT22;65797;47.352;8.164;2023-05-29T19:27:28;21.40;2.80
76838;DHT22;65797;47.352;8.164;2023-05-29T19:29:54;21.40;2.30
76838;DHT22;65797;47.352;8.164;2023-05-29T19:32:22;21.30;2.90
76838;DHT22;65797;47.352;8.164;2023-05-29T19:34:50;21.30;3.20
76838;DHT22;65797;47.352;8.164;2023-05-29T19:37:16;21.10;2.00
76838;DHT22;65797;47.352;8.164;2023-05-29T19:39:42;21.00;1.30
76838;DHT22;65797;47.352;8.164;2023-05-29T19:42:08;20.90;1.00
76838;DHT22;65797;47.352;8.164;2023-05-29T19:44:34;20.80;1.00
76838;DHT22;65797;47.352;8.164;2023-05-29T19:46:59;20.80;1.00